sensor_id;sensor_type;location;lat;lon;timestamp;temperature;humidity
26745;DHT22;14342;50.960;13.880;2023-03-11T00:00:44;4.10;99.90
26745;DHT22;14342;50.960;13.880;2023-03-11T00:01:44;4.00;99.90
26745;DHT22;14342;50.960;13.880;2023-03-11T00:02:46;3.80;99.90
26745;DHT22;14342;50.960;13.880;2023-03-11T00:03:47;3.80;99.90
26745;DHT22;14342;50.960;13.880;2023-03-11T00:04:51;3.80;99.90
26745;DHT22;14342;50.960;13.880;2023-03-11T00:05:52;3.90;99.90
26745;DHT22;14342;50.960;13.880;2023-03-11T00:06:53;3.60;99.90
26745;DHT22;14342;50.960;13.880;2023-03-11T00:07:54;3.70;99.90
26745;DHT22;14342;50.960;13.880;2023-03-11T00:08:55;3.60;99.90
26745;DHT22;14342;50.960;13.880;2023-03-11T00:09:57;3.60;99.90
26745;DHT22;14342;50.960;13.880;2023-03-11T00:10:58;3.60;99.90
26745;DHT22;14342;50.960;13.880;2023-03-11T00:12:01;3.60;99.90
26745;DHT22;14342;50.960;13.880;2023-03-11T00:13:02;3.50;99.90
26745;DHT22;14342;50.960;13.880;2023-03-11T00:14:04;3.60;99.90
26745;DHT22;14342;50.960;13.880;2023-03-11T00:15:06;3.60;99.90
26745;DHT22;14342;50.960;13.880;2023-03-11T00:16:06;3.60;99.90
26745;DHT22;14342;50.960;13.880;2023-03-11T00:17:08;3.70;99.90
26745;DHT22;14342;50.960;13.880;2023-03-11T00:18:08;3.60;99.90
26745;DHT22;14342;50.960;13.880;2023-03-11T00:19:10;3.50;99.90
26745;DHT22;14342;50.960;13.880;2023-03-11T00:20:15;3.50;99.90
26745;DHT22;14342;50.960;13.880;2023-03-11T00:21:17;3.40;99.90
26745;DHT22;14342;50.960;13.880;2023-03-11T00:22:19;3.40;99.90
26745;DHT22;14342;50.960;13.880;2023-03-11T00:23:20;3.20;99.90
26745;DHT22;14342;50.960;13.880;2023-03-11T00:24:21;3.30;99.90
26745;DHT22;14342;50.960;13.880;2023-03-11T00:25:23;3.20;99.90
26745;DHT22;14342;50.960;13.880;2023-03-11T00:26:24;3.20;99.90
26745;DHT22;14342;50.960;13.880;2023-03-11T00:27:26;3.20;99.90
26745;DHT22;14342;50.960;13.880;2023-03-11T00:28:26;3.20;99.90
26745;DHT22;14342;50.960;13.880;2023-03-11T00:29:28;3.20;99.90
26745;DHT22;14342;50.960;13.880;2023-03-11T00:30:28;3.30;99.90
26745;DHT22;14342;50.960;13.880;2023-03-11T00:31:30;3.30;99.90
26745;DHT22;14342;50.960;13.880;2023-03-11T00:32:32;3.20;99.90
26745;DHT22;14342;50.960;13.880;2023-03-11T00:33:32;3.10;99.90
26745;DHT22;14342;50.960;13.880;2023-03-11T00:34:34;3.10;99.90
26745;DHT22;14342;50.960;13.880;2023-03-11T00:35:36;3.00;99.90
26745;DHT22;14342;50.960;13.880;2023-03-11T00:36:38;3.00;99.90
26745;DHT22;14342;50.960;13.880;2023-03-11T00:37:40;2.90;99.90
26745;DHT22;14342;50.960;13.880;2023-03-11T00:38:42;2.80;99.90
26745;DHT22;14342;50.960;13.880;2023-03-11T00:39:43;2.80;99.90
26745;DHT22;14342;50.960;13.880;2023-03-11T00:40:45;2.80;99.90
26745;DHT22;14342;50.960;13.880;2023-03-11T00:41:46;2.80;99.90
26745;DHT22;14342;50.960;13.880;2023-03-11T00:42:48;2.80;99.90
26745;DHT22;14342;50.960;13.880;2023-03-11T00:43:48;2.70;99.90
26745;DHT22;14342;50.960;13.880;2023-03-11T00:44:50;2.70;99.90
26745;DHT22;14342;50.960;13.880;2023-03-11T00:45:50;3.00;99.90
26745;DHT22;14342;50.960;13.880;2023-03-11T00:46:52;2.70;99.90
26745;DHT22;14342;50.960;13.880;2023-03-11T00:47:53;2.60;99.90
26745;DHT22;14342;50.960;13.880;2023-03-11T00:48:54;2.60;99.90
26745;DHT22;14342;50.960;13.880;2023-03-11T00:49:55;2.50;99.90
26745;DHT22;14342;50.960;13.880;2023-03-11T00:50:58;2.60;99.90
26745;DHT22;14342;50.960;13.880;2023-03-11T00:51:58;2.70;99.90
26745;DHT22;14342;50.960;13.880;2023-03-11T00:53:00;2.70;99.90
26745;DHT22;14342;50.960;13.880;2023-03-11T00:54:01;2.60;99.90
26745;DHT22;14342;50.960;13.880;2023-03-11T00:55:02;2.50;99.90
26745;DHT22;14342;50.960;13.880;2023-03-11T00:56:06;2.40;99.90
26745;DHT22;14342;50.960;13.880;2023-03-11T00:57:08;2.40;99.90
26745;DHT22;14342;50.960;13.880;2023-03-11T00:58:09;2.40;99.90
26745;DHT22;14342;50.960;13.880;2023-03-11T00:59:11;2.30;99.90
26745;DHT22;14342;50.960;13.880;2023-03-11T01:00:12;2.30;99.90
26745;DHT22;14342;50.960;13.880;2023-03-11T01:01:15;2.40;99.90
26745;DHT22;14342;50.960;13.880;2023-03-11T01:02:15;2.30;99.90
26745;DHT22;14342;50.960;13.880;2023-03-11T01:03:17;2.20;99.90
26745;DHT22;14342;50.960;13.880;2023-03-11T01:04:17;2.20;99.90
26745;DHT22;14342;50.960;13.880;2023-03-11T01:05:19;2.30;99.90
26745;DHT22;14342;50.960;13.880;2023-03-11T01:06:22;2.20;99.90
26745;DHT22;14342;50.960;13.880;2023-03-11T01:07:23;2.30;99.90
26745;DHT22;14342;50.960;13.880;2023-03-11T01:08:24;2.40;99.90
26745;DHT22;14342;50.960;13.880;2023-03-11T01:09:26;2.50;99.90
26745;DHT22;14342;50.960;13.880;2023-03-11T01:10:27;2.40;99.90
26745;DHT22;14342;50.960;13.880;2023-03-11T01:11:29;2.30;99.90
26745;DHT22;14342;50.960;13.880;2023-03-11T01:12:29;2.20;99.90
26745;DHT22;14342;50.960;13.880;2023-03-11T01:13:31;2.20;99.90
26745;DHT22;14342;50.960;13.880;2023-03-11T01:14:32;2.20;99.90
26745;DHT22;14342;50.960;13.880;2023-03-11T01:15:34;2.40;99.90
26745;DHT22;14342;50.960;13.880;2023-03-11T01:16:35;2.20;99.90
26745;DHT22;14342;50.960;13.880;2023-03-11T01:17:36;2.20;99.90
26745;DHT22;14342;50.960;13.880;2023-03-11T01:18:37;2.20;99.90
26745;DHT22;14342;50.960;13.880;2023-03-11T01:19:38;2.20;99.90
26745;DHT22;14342;50.960;13.880;2023-03-11T01:20:39;2.20;99.90
26745;DHT22;14342;50.960;13.880;2023-03-11T01:21:42;2.30;99.90
26745;DHT22;14342;50.960;13.880;2023-03-11T01:22:42;2.20;99.90
26745;DHT22;14342;50.960;13.880;2023-03-11T01:23:44;2.30;99.90
26745;DHT22;14342;50.960;13.880;2023-03-11T01:24:45;2.20;99.90
26745;DHT22;14342;50.960;13.880;2023-03-11T01:25:46;2.30;99.90
26745;DHT22;14342;50.960;13.880;2023-03-11T01:26:47;2.30;99.90
26745;DHT22;14342;50.960;13.880;2023-03-11T01:27:48;2.30;99.90
26745;DHT22;14342;50.960;13.880;2023-03-11T01:28:49;2.30;99.90
26745;DHT22;14342;50.960;13.880;2023-03-11T01:29:50;2.20;99.90
26745;DHT22;14342;50.960;13.880;2023-03-11T01:30:50;2.20;99.90
26745;DHT22;14342;50.960;13.880;2023-03-11T01:31:52;2.00;99.90
26745;DHT22;14342;50.960;13.880;2023-03-11T01:32:53;2.20;99.90
26745;DHT22;14342;50.960;13.880;2023-03-11T01:33:54;2.00;99.90
26745;DHT22;14342;50.960;13.880;2023-03-11T01:34:55;2.00;99.90
26745;DHT22;14342;50.960;13.880;2023-03-11T01:35:56;1.90;99.90
26745;DHT22;14342;50.960;13.880;2023-03-11T01:36:58;1.90;99.90
26745;DHT22;14342;50.960;13.880;2023-03-11T01:38:00;1.90;99.90
26745;DHT22;14342;50.960;13.880;2023-03-11T01:39:02;1.90;99.90
26745;DHT22;14342;50.960;13.880;2023-03-11T01:40:02;1.90;99.90
26745;DHT22;14342;50.960;13.880;2023-03-11T01:41:04;1.90;99.90
26745;DHT22;14342;50.960;13.880;2023-03-11T01:42:05;1.90;99.90
26745;DHT22;14342;50.960;13.880;2023-03-11T01:44:22;1.90;99.90
26745;DHT22;14342;50.960;13.880;2023-03-11T01:45:30;1.80;99.90
26745;DHT22;14342;50.960;13.880;2023-03-11T01:46:32;1.90;99.90
26745;DHT22;14342;50.960;13.880;2023-03-11T01:47:37;1.50;99.90
26745;DHT22;14342;50.960;13.880;2023-03-11T01:48:38;1.90;99.90
26745;DHT22;14342;50.960;13.880;2023-03-11T01:49:39;1.90;99.90
26745;DHT22;14342;50.960;13.880;2023-03-11T01:50:42;1.90;99.90
26745;DHT22;14342;50.960;13.880;2023-03-11T01:51:44;1.90;99.90
26745;DHT22;14342;50.960;13.880;2023-03-11T01:52:49;1.90;99.90
26745;DHT22;14342;50.960;13.880;2023-03-11T01:53:51;1.80;99.90
26745;DHT22;14342;50.960;13.880;2023-03-11T01:54:51;1.90;99.90
26745;DHT22;14342;50.960;13.880;2023-03-11T01:55:53;1.90;99.90
26745;DHT22;14342;50.960;13.880;2023-03-11T01:56:53;1.90;99.90
26745;DHT22;14342;50.960;13.880;2023-03-11T01:57:55;1.80;99.90
26745;DHT22;14342;50.960;13.880;2023-03-11T01:58:56;1.90;99.90
26745;DHT22;14342;50.960;13.880;2023-03-11T01:59:58;1.80;99.90
26745;DHT22;14342;50.960;13.880;2023-03-11T02:01:00;1.90;99.90
26745;DHT22;14342;50.960;13.880;2023-03-11T02:02:04;1.90;99.90
26745;DHT22;14342;50.960;13.880;2023-03-11T02:03:06;1.80;99.90
26745;DHT22;14342;50.960;13.880;2023-03-11T02:04:10;1.80;99.90
26745;DHT22;14342;50.960;13.880;2023-03-11T02:05:11;1.80;99.90
26745;DHT22;14342;50.960;13.880;2023-03-11T02:06:13;1.90;99.90
26745;DHT22;14342;50.960;13.880;2023-03-11T02:07:14;1.90;99.90
26745;DHT22;14342;50.960;13.880;2023-03-11T02:08:17;2.20;99.90
26745;DHT22;14342;50.960;13.880;2023-03-11T02:09:17;1.90;99.90
26745;DHT22;14342;50.960;13.880;2023-03-11T02:10:19;1.90;99.90
26745;DHT22;14342;50.960;13.880;2023-03-11T02:11:21;2.00;99.90
26745;DHT22;14342;50.960;13.880;2023-03-11T02:12:24;2.00;99.90
26745;DHT22;14342;50.960;13.880;2023-03-11T02:13:25;2.10;99.90
26745;DHT22;14342;50.960;13.880;2023-03-11T02:14:26;1.90;99.90
26745;DHT22;14342;50.960;13.880;2023-03-11T02:15:28;1.90;99.90
26745;DHT22;14342;50.960;13.880;2023-03-11T02:16:29;2.00;99.90
26745;DHT22;14342;50.960;13.880;2023-03-11T02:17:30;2.00;99.90
26745;DHT22;14342;50.960;13.880;2023-03-11T02:18:32;2.00;99.90
26745;DHT22;14342;50.960;13.880;2023-03-11T02:19:34;1.90;99.90
26745;DHT22;14342;50.960;13.880;2023-03-11T02:20:40;1.90;99.90
26745;DHT22;14342;50.960;13.880;2023-03-11T02:21:42;1.80;99.90
26745;DHT22;14342;50.960;13.880;2023-03-11T02:22:43;1.80;99.90
26745;DHT22;14342;50.960;13.880;2023-03-11T02:23:46;1.80;99.90
26745;DHT22;14342;50.960;13.880;2023-03-11T02:24:53;1.90;99.90
26745;DHT22;14342;50.960;13.880;2023-03-11T02:25:57;1.80;99.90
26745;DHT22;14342;50.960;13.880;2023-03-11T02:27:02;1.80;99.90
26745;DHT22;14342;50.960;13.880;2023-03-11T02:28:04;1.80;99.90
26745;DHT22;14342;50.960;13.880;2023-03-11T02:29:08;1.80;99.90
26745;DHT22;14342;50.960;13.880;2023-03-11T02:30:11;1.80;99.90
26745;DHT22;14342;50.960;13.880;2023-03-11T02:31:13;1.80;99.90
26745;DHT22;14342;50.960;13.880;2023-03-11T02:32:14;1.80;99.90
26745;DHT22;14342;50.960;13.880;2023-03-11T02:33:16;1.80;99.90
26745;DHT22;14342;50.960;13.880;2023-03-11T02:34:25;1.70;99.90
26745;DHT22;14342;50.960;13.880;2023-03-11T02:35:28;1.70;99.90
26745;DHT22;14342;50.960;13.880;2023-03-11T02:36:30;1.70;99.90
26745;DHT22;14342;50.960;13.880;2023-03-11T02:37:32;1.70;99.90
26745;DHT22;14342;50.960;13.880;2023-03-11T02:38:32;1.70;99.90
26745;DHT22;14342;50.960;13.880;2023-03-11T02:39:34;1.70;99.90
26745;DHT22;14342;50.960;13.880;2023-03-11T02:40:49;1.70;99.90
26745;DHT22;14342;50.960;13.880;2023-03-11T02:41:51;1.70;99.90
26745;DHT22;14342;50.960;13.880;2023-03-11T02:42:54;1.80;99.90
26745;DHT22;14342;50.960;13.880;2023-03-11T02:43:56;1.70;99.90
26745;DHT22;14342;50.960;13.880;2023-03-11T02:44:58;1.70;99.90
26745;DHT22;14342;50.960;13.880;2023-03-11T02:46:00;1.70;99.90
26745;DHT22;14342;50.960;13.880;2023-03-11T02:47:01;1.80;99.90
26745;DHT22;14342;50.960;13.880;2023-03-11T02:48:03;1.70;99.90
26745;DHT22;14342;50.960;13.880;2023-03-11T02:49:04;1.70;99.90
26745;DHT22;14342;50.960;13.880;2023-03-11T02:50:06;1.70;99.90
26745;DHT22;14342;50.960;13.880;2023-03-11T02:51:08;1.60;99.90
26745;DHT22;14342;50.960;13.880;2023-03-11T02:52:10;1.60;99.90
26745;DHT22;14342;50.960;13.880;2023-03-11T02:53:12;1.60;99.90
26745;DHT22;14342;50.960;13.880;2023-03-11T02:54:14;1.50;99.90
26745;DHT22;14342;50.960;13.880;2023-03-11T02:55:15;1.50;99.90
26745;DHT22;14342;50.960;13.880;2023-03-11T02:56:17;1.50;99.90
26745;DHT22;14342;50.960;13.880;2023-03-11T02:57:18;1.50;99.90
26745;DHT22;14342;50.960;13.880;2023-03-11T02:58:20;1.50;99.90
26745;DHT22;14342;50.960;13.880;2023-03-11T02:59:21;1.50;99.90
26745;DHT22;14342;50.960;13.880;2023-03-11T03:00:22;1.50;99.90
26745;DHT22;14342;50.960;13.880;2023-03-11T03:01:24;1.40;99.90
26745;DHT22;14342;50.960;13.880;2023-03-11T03:02:26;1.50;99.90
26745;DHT22;14342;50.960;13.880;2023-03-11T03:03:28;1.50;99.90
26745;DHT22;14342;50.960;13.880;2023-03-11T03:04:30;1.50;99.90
26745;DHT22;14342;50.960;13.880;2023-03-11T03:05:32;1.50;99.90
26745;DHT22;14342;50.960;13.880;2023-03-11T03:06:34;1.50;99.90
26745;DHT22;14342;50.960;13.880;2023-03-11T03:07:35;1.40;99.90
26745;DHT22;14342;50.960;13.880;2023-03-11T03:08:37;1.40;99.90
26745;DHT22;14342;50.960;13.880;2023-03-11T03:09:37;1.40;99.90
26745;DHT22;14342;50.960;13.880;2023-03-11T03:10:39;1.40;99.90
26745;DHT22;14342;50.960;13.880;2023-03-11T03:11:39;1.40;99.90
26745;DHT22;14342;50.960;13.880;2023-03-11T03:12:41;1.40;99.90
26745;DHT22;14342;50.960;13.880;2023-03-11T03:13:43;1.30;99.90
26745;DHT22;14342;50.960;13.880;2023-03-11T03:14:44;1.30;99.90
26745;DHT22;14342;50.960;13.880;2023-03-11T03:15:45;1.20;99.90
26745;DHT22;14342;50.960;13.880;2023-03-11T03:16:46;1.20;99.90
26745;DHT22;14342;50.960;13.880;2023-03-11T03:17:47;1.30;99.90
26745;DHT22;14342;50.960;13.880;2023-03-11T03:18:50;1.40;99.90
26745;DHT22;14342;50.960;13.880;2023-03-11T03:19:51;1.20;99.90
26745;DHT22;14342;50.960;13.880;2023-03-11T03:20:53;1.20;99.90
26745;DHT22;14342;50.960;13.880;2023-03-11T03:21:54;1.20;99.90
26745;DHT22;14342;50.960;13.880;2023-03-11T03:22:55;1.20;99.90
26745;DHT22;14342;50.960;13.880;2023-03-11T03:23:56;1.20;99.90
26745;DHT22;14342;50.960;13.880;2023-03-11T03:24:57;1.20;99.90
26745;DHT22;14342;50.960;13.880;2023-03-11T03:25:58;1.20;99.90
26745;DHT22;14342;50.960;13.880;2023-03-11T03:26:59;1.20;99.90
26745;DHT22;14342;50.960;13.880;2023-03-11T03:28:00;1.10;99.90
26745;DHT22;14342;50.960;13.880;2023-03-11T03:29:03;1.10;99.90
26745;DHT22;14342;50.960;13.880;2023-03-11T03:30:04;0.80;99.90
26745;DHT22;14342;50.960;13.880;2023-03-11T03:31:06;1.00;99.90
26745;DHT22;14342;50.960;13.880;2023-03-11T03:32:08;1.00;99.90
26745;DHT22;14342;50.960;13.880;2023-03-11T03:33:11;1.10;99.90
26745;DHT22;14342;50.960;13.880;2023-03-11T03:34:13;1.10;99.90
26745;DHT22;14342;50.960;13.880;2023-03-11T03:35:14;1.10;99.90
26745;DHT22;14342;50.960;13.880;2023-03-11T03:36:16;1.30;99.90
26745;DHT22;14342;50.960;13.880;2023-03-11T03:37:17;0.90;99.90
26745;DHT22;14342;50.960;13.880;2023-03-11T03:38:21;0.90;99.90
26745;DHT22;14342;50.960;13.880;2023-03-11T03:39:22;0.90;99.90
26745;DHT22;14342;50.960;13.880;2023-03-11T03:40:24;0.90;99.90
26745;DHT22;14342;50.960;13.880;2023-03-11T03:41:24;0.90;99.90
26745;DHT22;14342;50.960;13.880;2023-03-11T03:42:26;0.90;99.90
26745;DHT22;14342;50.960;13.880;2023-03-11T03:43:26;0.90;99.90
26745;DHT22;14342;50.960;13.880;2023-03-11T03:44:29;0.80;99.90
26745;DHT22;14342;50.960;13.880;2023-03-11T03:45:30;0.80;99.90
26745;DHT22;14342;50.960;13.880;2023-03-11T03:46:31;0.80;99.90
26745;DHT22;14342;50.960;13.880;2023-03-11T03:47:32;0.90;99.90
26745;DHT22;14342;50.960;13.880;2023-03-11T03:48:34;0.90;99.90
26745;DHT22;14342;50.960;13.880;2023-03-11T03:49:35;0.90;99.90
26745;DHT22;14342;50.960;13.880;2023-03-11T03:50:37;0.80;99.90
26745;DHT22;14342;50.960;13.880;2023-03-11T03:51:38;0.80;99.90
26745;DHT22;14342;50.960;13.880;2023-03-11T03:52:40;0.80;99.90
26745;DHT22;14342;50.960;13.880;2023-03-11T03:53:40;0.80;99.90
26745;DHT22;14342;50.960;13.880;2023-03-11T03:54:42;0.80;99.90
26745;DHT22;14342;50.960;13.880;2023-03-11T03:55:42;0.80;99.90
26745;DHT22;14342;50.960;13.880;2023-03-11T03:56:44;0.80;99.90
26745;DHT22;14342;50.960;13.880;2023-03-11T03:57:44;0.80;99.90
26745;DHT22;14342;50.960;13.880;2023-03-11T03:58:46;0.80;99.90
26745;DHT22;14342;50.960;13.880;2023-03-11T03:59:48;0.80;99.90
26745;DHT22;14342;50.960;13.880;2023-03-11T04:00:54;0.80;99.90
26745;DHT22;14342;50.960;13.880;2023-03-11T04:01:54;0.80;99.90
26745;DHT22;14342;50.960;13.880;2023-03-11T04:02:56;0.80;99.90
26745;DHT22;14342;50.960;13.880;2023-03-11T04:03:56;0.80;99.90
26745;DHT22;14342;50.960;13.880;2023-03-11T04:04:58;0.80;99.90
26745;DHT22;14342;50.960;13.880;2023-03-11T04:06:05;0.80;99.90
26745;DHT22;14342;50.960;13.880;2023-03-11T04:07:07;0.80;99.90
26745;DHT22;14342;50.960;13.880;2023-03-11T04:08:07;0.80;99.90
26745;DHT22;14342;50.960;13.880;2023-03-11T04:09:09;0.80;99.90
26745;DHT22;14342;50.960;13.880;2023-03-11T04:10:12;0.90;99.90
26745;DHT22;14342;50.960;13.880;2023-03-11T04:11:13;0.90;99.90
26745;DHT22;14342;50.960;13.880;2023-03-11T04:12:14;0.80;99.90
26745;DHT22;14342;50.960;13.880;2023-03-11T04:13:16;0.80;99.90
26745;DHT22;14342;50.960;13.880;2023-03-11T04:14:17;0.80;99.90
26745;DHT22;14342;50.960;13.880;2023-03-11T04:15:20;0.80;99.90
26745;DHT22;14342;50.960;13.880;2023-03-11T04:16:21;0.90;99.90
26745;DHT22;14342;50.960;13.880;2023-03-11T04:17:23;0.70;99.90
26745;DHT22;14342;50.960;13.880;2023-03-11T04:18:23;0.70;99.90
26745;DHT22;14342;50.960;13.880;2023-03-11T04:19:25;0.70;99.90
26745;DHT22;14342;50.960;13.880;2023-03-11T04:20:25;0.70;99.90
26745;DHT22;14342;50.960;13.880;2023-03-11T04:21:27;0.60;99.90
26745;DHT22;14342;50.960;13.880;2023-03-11T04:22:27;0.70;99.90
26745;DHT22;14342;50.960;13.880;2023-03-11T04:23:29;0.80;99.90
26745;DHT22;14342;50.960;13.880;2023-03-11T04:24:29;0.80;99.90
26745;DHT22;14342;50.960;13.880;2023-03-11T04:25:31;0.70;99.90
26745;DHT22;14342;50.960;13.880;2023-03-11T04:26:33;0.70;99.90
26745;DHT22;14342;50.960;13.880;2023-03-11T04:27:35;0.70;99.90
26745;DHT22;14342;50.960;13.880;2023-03-11T04:28:37;0.60;99.90
26745;DHT22;14342;50.960;13.880;2023-03-11T04:29:38;0.60;99.90
26745;DHT22;14342;50.960;13.880;2023-03-11T04:30:41;0.60;99.90
26745;DHT22;14342;50.960;13.880;2023-03-11T04:31:41;0.70;99.90
26745;DHT22;14342;50.960;13.880;2023-03-11T04:32:43;0.60;99.90
26745;DHT22;14342;50.960;13.880;2023-03-11T04:33:43;0.60;99.90
26745;DHT22;14342;50.960;13.880;2023-03-11T04:34:45;0.60;99.90
26745;DHT22;14342;50.960;13.880;2023-03-11T04:35:45;0.60;99.90
26745;DHT22;14342;50.960;13.880;2023-03-11T04:36:49;0.60;99.90
26745;DHT22;14342;50.960;13.880;2023-03-11T04:37:50;0.60;99.90
26745;DHT22;14342;50.960;13.880;2023-03-11T04:38:51;0.60;99.90
26745;DHT22;14342;50.960;13.880;2023-03-11T04:39:52;0.60;99.90
26745;DHT22;14342;50.960;13.880;2023-03-11T04:40:53;0.60;99.90
26745;DHT22;14342;50.960;13.880;2023-03-11T04:41:58;0.60;99.90
26745;DHT22;14342;50.960;13.880;2023-03-11T04:43:00;0.60;99.90
26745;DHT22;14342;50.960;13.880;2023-03-11T04:44:00;0.60;99.90
26745;DHT22;14342;50.960;13.880;2023-03-11T04:45:02;0.60;99.90
26745;DHT22;14342;50.960;13.880;2023-03-11T04:46:04;0.60;99.90
26745;DHT22;14342;50.960;13.880;2023-03-11T04:47:05;0.60;99.90
26745;DHT22;14342;50.960;13.880;2023-03-11T04:48:06;0.60;99.90
26745;DHT22;14342;50.960;13.880;2023-03-11T04:49:08;0.50;99.90
26745;DHT22;14342;50.960;13.880;2023-03-11T04:50:09;0.50;99.90
26745;DHT22;14342;50.960;13.880;2023-03-11T04:51:11;0.50;99.90
26745;DHT22;14342;50.960;13.880;2023-03-11T04:52:11;0.50;99.90
26745;DHT22;14342;50.960;13.880;2023-03-11T04:53:13;0.50;99.90
26745;DHT22;14342;50.960;13.880;2023-03-11T04:54:13;0.50;99.90
26745;DHT22;14342;50.960;13.880;2023-03-11T04:55:15;0.50;99.90
26745;DHT22;14342;50.960;13.880;2023-03-11T04:56:16;0.50;99.90
26745;DHT22;14342;50.960;13.880;2023-03-11T04:57:17;0.50;99.90
26745;DHT22;14342;50.960;13.880;2023-03-11T04:58:18;0.50;99.90
26745;DHT22;14342;50.960;13.880;2023-03-11T04:59:19;0.50;99.90
26745;DHT22;14342;50.960;13.880;2023-03-11T05:00:20;0.50;99.90
26745;DHT22;14342;50.960;13.880;2023-03-11T05:01:25;0.50;99.90
26745;DHT22;14342;50.960;13.880;2023-03-11T05:02:26;0.60;99.90
26745;DHT22;14342;50.960;13.880;2023-03-11T05:03:27;0.50;99.90
26745;DHT22;14342;50.960;13.880;2023-03-11T05:04:28;0.50;99.90
26745;DHT22;14342;50.960;13.880;2023-03-11T05:05:29;0.50;99.90
26745;DHT22;14342;50.960;13.880;2023-03-11T05:06:30;0.50;99.90
26745;DHT22;14342;50.960;13.880;2023-03-11T05:07:31;0.50;99.90
26745;DHT22;14342;50.960;13.880;2023-03-11T05:08:32;0.60;99.90
26745;DHT22;14342;50.960;13.880;2023-03-11T05:09:33;0.60;99.90
26745;DHT22;14342;50.960;13.880;2023-03-11T05:10:34;0.60;99.90
26745;DHT22;14342;50.960;13.880;2023-03-11T05:11:36;0.60;99.90
26745;DHT22;14342;50.960;13.880;2023-03-11T05:12:36;0.60;99.90
26745;DHT22;14342;50.960;13.880;2023-03-11T05:13:38;0.60;99.90
26745;DHT22;14342;50.960;13.880;2023-03-11T05:14:38;0.60;99.90
26745;DHT22;14342;50.960;13.880;2023-03-11T05:15:40;0.60;99.90
26745;DHT22;14342;50.960;13.880;2023-03-11T05:16:42;0.60;99.90
26745;DHT22;14342;50.960;13.880;2023-03-11T05:17:43;0.60;99.90
26745;DHT22;14342;50.960;13.880;2023-03-11T05:18:44;0.60;99.90
26745;DHT22;14342;50.960;13.880;2023-03-11T05:19:46;0.50;99.90
26745;DHT22;14342;50.960;13.880;2023-03-11T05:20:46;0.60;99.90
26745;DHT22;14342;50.960;13.880;2023-03-11T05:21:48;0.80;99.90
26745;DHT22;14342;50.960;13.880;2023-03-11T05:22:48;0.60;99.90
26745;DHT22;14342;50.960;13.880;2023-03-11T05:23:50;0.60;99.90
26745;DHT22;14342;50.960;13.880;2023-03-11T05:24:51;0.60;99.90
26745;DHT22;14342;50.960;13.880;2023-03-11T05:25:52;0.50;99.90
26745;DHT22;14342;50.960;13.880;2023-03-11T05:26:53;0.50;99.90
26745;DHT22;14342;50.960;13.880;2023-03-11T05:27:54;0.50;99.90
26745;DHT22;14342;50.960;13.880;2023-03-11T05:28:55;0.50;99.90
26745;DHT22;14342;50.960;13.880;2023-03-11T05:29:56;0.60;99.90
26745;DHT22;14342;50.960;13.880;2023-03-11T05:30:57;0.60;99.90
26745;DHT22;14342;50.960;13.880;2023-03-11T05:31:59;0.60;99.90
26745;DHT22;14342;50.960;13.880;2023-03-11T05:33:01;0.60;99.90
26745;DHT22;14342;50.960;13.880;2023-03-11T05:34:01;0.60;99.90
26745;DHT22;14342;50.960;13.880;2023-03-11T05:35:03;0.60;99.90
26745;DHT22;14342;50.960;13.880;2023-03-11T05:36:05;0.60;99.90
26745;DHT22;14342;50.960;13.880;2023-03-11T05:37:07;0.60;99.90
26745;DHT22;14342;50.960;13.880;2023-03-11T05:38:08;0.50;99.90
26745;DHT22;14342;50.960;13.880;2023-03-11T05:39:09;0.60;99.90
26745;DHT22;14342;50.960;13.880;2023-03-11T05:40:10;0.60;99.90
26745;DHT22;14342;50.960;13.880;2023-03-11T05:41:12;0.60;99.90
26745;DHT22;14342;50.960;13.880;2023-03-11T05:42:12;0.60;99.90
26745;DHT22;14342;50.960;13.880;2023-03-11T05:43:14;0.60;99.90
26745;DHT22;14342;50.960;13.880;2023-03-11T05:44:15;0.50;99.90
26745;DHT22;14342;50.960;13.880;2023-03-11T05:45:16;0.50;99.90
26745;DHT22;14342;50.960;13.880;2023-03-11T05:46:17;0.60;99.90
26745;DHT22;14342;50.960;13.880;2023-03-11T05:47:21;0.60;99.90
26745;DHT22;14342;50.960;13.880;2023-03-11T05:48:21;0.60;99.90
26745;DHT22;14342;50.960;13.880;2023-03-11T05:49:23;0.60;99.90
26745;DHT22;14342;50.960;13.880;2023-03-11T05:50:23;0.60;99.90
26745;DHT22;14342;50.960;13.880;2023-03-11T05:51:25;0.60;99.90
26745;DHT22;14342;50.960;13.880;2023-03-11T05:52:26;0.60;99.90
26745;DHT22;14342;50.960;13.880;2023-03-11T05:53:27;0.60;99.90
26745;DHT22;14342;50.960;13.880;2023-03-11T05:54:28;0.70;99.90
26745;DHT22;14342;50.960;13.880;2023-03-11T05:55:29;0.70;99.90
26745;DHT22;14342;50.960;13.880;2023-03-11T05:56:31;0.60;99.90
26745;DHT22;14342;50.960;13.880;2023-03-11T05:57:31;0.60;99.90
26745;DHT22;14342;50.960;13.880;2023-03-11T05:58:33;0.60;99.90
26745;DHT22;14342;50.960;13.880;2023-03-11T05:59:33;0.60;99.90
26745;DHT22;14342;50.960;13.880;2023-03-11T06:00:36;0.60;99.90
26745;DHT22;14342;50.960;13.880;2023-03-11T06:01:38;0.60;99.90
26745;DHT22;14342;50.960;13.880;2023-03-11T06:02:40;0.60;99.90
26745;DHT22;14342;50.960;13.880;2023-03-11T06:03:42;0.60;99.90
26745;DHT22;14342;50.960;13.880;2023-03-11T06:04:43;0.60;99.90
26745;DHT22;14342;50.960;13.880;2023-03-11T06:05:45;0.60;99.90
26745;DHT22;14342;50.960;13.880;2023-03-11T06:06:45;0.60;99.90
26745;DHT22;14342;50.960;13.880;2023-03-11T06:07:47;0.60;99.90
26745;DHT22;14342;50.960;13.880;2023-03-11T06:08:47;0.60;99.90
26745;DHT22;14342;50.960;13.880;2023-03-11T06:09:49;0.60;99.90
26745;DHT22;14342;50.960;13.880;2023-03-11T06:10:50;0.60;99.90
26745;DHT22;14342;50.960;13.880;2023-03-11T06:11:51;0.60;99.90
26745;DHT22;14342;50.960;13.880;2023-03-11T06:12:52;0.60;99.90
26745;DHT22;14342;50.960;13.880;2023-03-11T06:13:54;0.70;99.90
26745;DHT22;14342;50.960;13.880;2023-03-11T06:14:54;0.60;99.90
26745;DHT22;14342;50.960;13.880;2023-03-11T06:15:56;0.60;99.90
26745;DHT22;14342;50.960;13.880;2023-03-11T06:16:56;0.60;99.90
26745;DHT22;14342;50.960;13.880;2023-03-11T06:17:59;0.70;99.90
26745;DHT22;14342;50.960;13.880;2023-03-11T06:19:00;0.60;99.90
26745;DHT22;14342;50.960;13.880;2023-03-11T06:20:01;0.60;99.90
26745;DHT22;14342;50.960;13.880;2023-03-11T06:21:04;0.20;99.90
26745;DHT22;14342;50.960;13.880;2023-03-11T06:22:07;0.70;99.90
26745;DHT22;14342;50.960;13.880;2023-03-11T06:23:08;0.70;99.90
26745;DHT22;14342;50.960;13.880;2023-03-11T06:24:09;0.70;99.90
26745;DHT22;14342;50.960;13.880;2023-03-11T06:25:10;0.70;99.90
26745;DHT22;14342;50.960;13.880;2023-03-11T06:26:12;0.70;99.90
26745;DHT22;14342;50.960;13.880;2023-03-11T06:27:13;0.70;99.90
26745;DHT22;14342;50.960;13.880;2023-03-11T06:28:15;0.60;99.90
26745;DHT22;14342;50.960;13.880;2023-03-11T06:29:15;0.70;99.90
26745;DHT22;14342;50.960;13.880;2023-03-11T06:30:17;0.60;99.90